Time;durP1;ratioP1;P1;durP2;ratioP2;P2;SDS_P1;SDS_P2;PMS_P1;PMS_P2;Temp;Humidity;BMP_temperature;BMP_pressure;BME280_temperature;BME280_humidity;BME280_pressure;Samples;Min_cycle;Max_cycle;Signal;HPM_P1;HPM_P2
2022/11/08 00:01:30;;;;;;;8.53;5.50;;;13.00;99.90;;;;;;4942226;28;20433;-68
2022/11/08 00:03:56;;;;;;;9.00;5.47;;;12.90;99.90;;;;;;4945244;28;20846;-69
2022/11/08 00:14:35;;;;;;;8.10;5.97;;;12.80;99.90;;;;;;4944404;28;21631;-67
2022/11/08 00:17:01;;;;;;;8.47;6.17;;;12.80;99.90;;;;;;4945381;28;20543;-67
2022/11/08 00:19:26;;;;;;;11.30;5.83;;;12.80;99.90;;;;;;4945256;28;20198;-67
2022/11/08 00:21:52;;;;;;;12.50;7.20;;;12.80;99.90;;;;;;4948387;28;20187;-67
2022/11/08 00:24:17;;;;;;;7.00;4.80;;;12.70;99.90;;;;;;4944608;28;20223;-67
2022/11/08 00:26:43;;;;;;;10.90;5.90;;;12.70;99.90;;;;;;4947422;28;20795;-67
2022/11/08 00:29:08;;;;;;;7.80;5.33;;;12.70;99.90;;;;;;4940424;28;20269;-67
2022/11/08 00:31:34;;;;;;;10.57;5.53;;;12.70;99.90;;;;;;4946280;28;20195;-68
2022/11/08 00:34:00;;;;;;;7.97;4.87;;;12.70;99.90;;;;;;4945876;28;20245;-67
2022/11/08 00:36:25;;;;;;;6.93;4.80;;;12.60;99.90;;;;;;4943833;28;20187;-67
2022/11/08 00:38:51;;;;;;;8.70;4.80;;;12.60;99.90;;;;;;4945551;28;20278;-67
2022/11/08 00:41:16;;;;;;;8.83;5.40;;;12.60;99.90;;;;;;4947906;28;20614;-67
2022/11/08 00:43:42;;;;;;;8.00;5.10;;;12.60;99.90;;;;;;4946756;28;20560;-67
2022/11/08 00:46:08;;;;;;;10.60;7.70;;;12.60;99.90;;;;;;4945434;28;20248;-67
2022/11/08 00:48:33;;;;;;;9.00;5.70;;;12.50;99.90;;;;;;4941669;28;20196;-67
2022/11/08 00:51:04;;;;;;;9.47;4.90;;;12.60;99.90;;;;;;4944504;28;20187;-67
2022/11/08 00:53:30;;;;;;;9.00;4.90;;;12.50;99.90;;;;;;4941098;28;20227;-68
2022/11/08 00:56:00;;;;;;;9.80;6.17;;;12.50;99.90;;;;;;4944746;28;20496;-67
2022/11/08 00:58:26;;;;;;;6.57;4.90;;;12.50;99.90;;;;;;4957661;28;20645;-67
2022/11/08 01:00:52;;;;;;;7.17;5.70;;;12.50;99.90;;;;;;4945132;28;21331;-67
2022/11/08 01:03:17;;;;;;;10.97;5.73;;;12.50;99.90;;;;;;4943461;28;20823;-67
2022/11/08 01:05:44;;;;;;;6.27;4.43;;;12.50;99.90;;;;;;4943461;28;20273;-68
2022/11/08 01:08:10;;;;;;;8.27;5.37;;;12.40;99.90;;;;;;4943686;28;20191;-68
2022/11/08 01:10:39;;;;;;;7.10;4.90;;;12.40;99.90;;;;;;4941203;28;20476;-68
2022/11/08 01:13:05;;;;;;;11.03;4.50;;;12.40;99.90;;;;;;4941342;28;20485;-68
2022/11/08 01:15:41;;;;;;;7.37;5.23;;;12.40;99.90;;;;;;4944372;28;20415;-68
2022/11/08 01:18:09;;;;;;;6.73;3.93;;;12.40;99.90;;;;;;4945525;28;20183;-68
2022/11/08 01:20:38;;;;;;;8.60;4.17;;;12.40;99.90;;;;;;4946234;28;20450;-68
2022/11/08 01:23:04;;;;;;;7.67;4.10;;;12.30;99.90;;;;;;4946305;28;20771;-68
2022/11/08 01:25:30;;;;;;;6.97;4.23;;;12.30;99.90;;;;;;4947129;28;20438;-68
2022/11/08 01:27:57;;;;;;;6.27;4.27;;;12.30;99.90;;;;;;4944114;28;20497;-68
2022/11/08 01:30:22;;;;;;;7.70;4.23;;;12.30;99.90;;;;;;4948394;28;20655;-68
2022/11/08 01:32:48;;;;;;;6.60;3.60;;;12.30;99.90;;;;;;4947856;28;20455;-68
2022/11/08 01:35:14;;;;;;;6.83;3.33;;;12.30;99.90;;;;;;4951966;28;20199;-68
2022/11/08 01:37:39;;;;;;;10.20;4.03;;;12.30;99.90;;;;;;4943006;28;20188;-66
2022/11/08 01:40:05;;;;;;;4.90;3.20;;;12.30;99.90;;;;;;4938583;28;21112;-66
2022/11/08 01:42:32;;;;;;;5.40;3.37;;;12.20;99.90;;;;;;4944544;28;20627;-69
2022/11/08 01:45:00;;;;;;;4.77;3.60;;;12.20;99.90;;;;;;4942816;28;20524;-66
2022/11/08 01:47:25;;;;;;;5.77;3.53;;;12.20;99.90;;;;;;4945020;28;20427;-67
2022/11/08 01:49:56;;;;;;;6.93;3.90;;;12.20;99.90;;;;;;4944377;28;20439;-67
2022/11/08 01:52:27;;;;;;;7.60;3.50;;;12.20;99.90;;;;;;4944359;28;20229;-68
2022/11/08 01:55:00;;;;;;;6.50;3.00;;;12.20;99.90;;;;;;4943322;28;20431;-69
2022/11/08 01:57:38;;;;;;;4.60;3.00;;;12.20;99.90;;;;;;4943326;28;20473;-67
2022/11/08 02:00:09;;;;;;;4.67;3.50;;;12.20;99.90;;;;;;4944128;28;20454;-67
2022/11/08 02:02:36;;;;;;;4.43;3.33;;;12.10;99.90;;;;;;4945797;28;20415;-67
2022/11/08 02:05:05;;;;;;;11.23;3.27;;;12.10;99.90;;;;;;4944015;28;20455;-67
2022/11/08 02:07:33;;;;;;;5.17;3.47;;;12.10;99.90;;;;;;4939665;28;20790;-67
2022/11/08 02:09:59;;;;;;;5.80;4.17;;;12.10;99.90;;;;;;4941524;28;20435;-67
2022/11/08 02:12:26;;;;;;;7.00;3.70;;;12.10;99.90;;;;;;4944069;28;20467;-67
2022/11/08 02:14:52;;;;;;;5.40;3.60;;;12.10;99.90;;;;;;4940914;28;20731;-67
2022/11/08 02:17:17;;;;;;;3.97;3.27;;;12.10;99.90;;;;;;4944725;28;20489;-68
2022/11/08 02:19:47;;;;;;;5.10;3.80;;;12.00;99.90;;;;;;4943877;28;20249;-68
2022/11/08 02:22:24;;;;;;;7.60;3.97;;;12.00;99.90;;;;;;4940917;28;20250;-67
2022/11/08 02:24:50;;;;;;;6.00;3.43;;;12.00;99.90;;;;;;4944222;28;20519;-68
2022/11/08 02:27:15;;;;;;;5.07;3.33;;;12.00;99.90;;;;;;4943019;28;20442;-68
2022/11/08 02:29:41;;;;;;;7.97;4.37;;;12.00;99.90;;;;;;4944749;28;20199;-67
2022/11/08 02:32:08;;;;;;;7.27;4.00;;;11.90;99.90;;;;;;4943289;28;20188;-68
2022/11/08 02:34:42;;;;;;;5.87;4.30;;;11.90;99.90;;;;;;4944896;28;20482;-68
2022/11/08 02:37:09;;;;;;;7.17;3.27;;;11.80;99.90;;;;;;4940722;28;20441;-68
2022/11/08 02:39:35;;;;;;;9.60;4.30;;;11.80;99.90;;;;;;4944036;28;20427;-68
2022/11/08 02:42:01;;;;;;;5.60;3.70;;;11.80;99.90;;;;;;4942560;28;20431;-68
2022/11/08 02:44:27;;;;;;;7.70;3.53;;;11.80;99.90;;;;;;4942881;28;20734;-67
2022/11/08 02:46:52;;;;;;;5.53;3.90;;;11.70;99.90;;;;;;4940659;28;20451;-67
2022/11/08 02:49:18;;;;;;;4.00;3.10;;;11.70;99.90;;;;;;4945886;28;20191;-68
2022/11/08 02:51:44;;;;;;;7.57;3.70;;;11.70;99.90;;;;;;4939878;28;20198;-67
2022/11/08 02:54:09;;;;;;;5.10;3.30;;;11.70;99.90;;;;;;4948340;28;20255;-68
2022/11/08 02:56:35;;;;;;;5.60;3.57;;;11.70;99.90;;;;;;4945318;28;20918;-67
2022/11/08 02:59:00;;;;;;;9.90;3.50;;;11.60;99.90;;;;;;4944261;28;20645;-67
2022/11/08 03:01:26;;;;;;;6.70;3.60;;;11.60;99.90;;;;;;4944023;28;20194;-67
2022/11/08 03:03:51;;;;;;;6.20;3.40;;;11.60;99.90;;;;;;4944627;28;20257;-67
2022/11/08 03:06:17;;;;;;;7.83;3.50;;;11.60;99.90;;;;;;4944034;28;20204;-67
2022/11/08 03:08:43;;;;;;;7.67;3.67;;;11.60;99.90;;;;;;4942021;28;20253;-67
2022/11/08 03:11:08;;;;;;;5.80;3.37;;;11.50;99.90;;;;;;4936625;28;20191;-67
2022/11/08 03:13:34;;;;;;;7.70;4.30;;;11.50;99.90;;;;;;4939889;28;20232;-67
2022/11/08 03:16:04;;;;;;;5.83;3.43;;;11.50;99.90;;;;;;4943459;28;20195;-67
2022/11/08 03:18:30;;;;;;;4.00;3.43;;;11.50;99.90;;;;;;4942170;28;20183;-67
2022/11/08 03:20:55;;;;;;;10.23;3.43;;;11.50;99.90;;;;;;4944495;28;20542;-67
2022/11/08 03:23:21;;;;;;;5.63;3.30;;;11.50;99.90;;;;;;4945628;28;20530;-67
2022/11/08 03:25:46;;;;;;;6.17;3.80;;;11.50;99.90;;;;;;4942034;28;20184;-67
2022/11/08 03:28:12;;;;;;;4.77;3.47;;;11.40;99.90;;;;;;4945902;28;20202;-67
2022/11/08 03:30:37;;;;;;;5.60;3.67;;;11.40;99.90;;;;;;4940984;28;20194;-67
2022/11/08 03:33:03;;;;;;;6.20;3.83;;;11.30;99.90;;;;;;4943142;28;20602;-66
2022/11/08 03:35:29;;;;;;;4.70;3.20;;;11.30;99.90;;;;;;4941831;28;20269;-67
2022/11/08 03:37:56;;;;;;;4.60;3.43;;;11.30;99.90;;;;;;4941800;28;20531;-67
2022/11/08 03:40:23;;;;;;;10.03;4.50;;;11.30;99.90;;;;;;4944400;28;20192;-67
2022/11/08 03:42:48;;;;;;;5.23;3.90;;;11.20;99.90;;;;;;4943635;28;20427;-67
2022/11/08 03:45:15;;;;;;;7.53;4.23;;;11.20;99.90;;;;;;4944530;28;20489;-67
2022/11/08 03:47:45;;;;;;;9.83;3.70;;;11.20;99.90;;;;;;4943957;28;20439;-67
2022/11/08 03:50:13;;;;;;;7.60;4.07;;;11.10;99.90;;;;;;4945640;28;20888;-66
2022/11/08 03:52:57;;;;;;;9.03;6.60;;;11.10;99.90;;;;;;4944949;28;20457;-66
2022/11/08 03:55:25;;;;;;;6.60;4.70;;;11.10;99.90;;;;;;4944619;28;20423;-67
2022/11/08 03:57:51;;;;;;;6.90;4.53;;;11.00;99.90;;;;;;4944808;28;20572;-67
2022/11/08 04:00:20;;;;;;;7.13;4.77;;;11.00;99.90;;;;;;4946470;28;20472;-67
2022/11/08 04:02:46;;;;;;;9.50;5.37;;;11.00;99.90;;;;;;4943553;28;20453;-67
2022/11/08 04:05:13;;;;;;;5.80;4.67;;;11.00;99.90;;;;;;4946123;28;20462;-66
2022/11/08 04:07:39;;;;;;;7.33;4.20;;;11.00;99.90;;;;;;4940603;28;20445;-67
2022/11/08 04:10:07;;;;;;;8.00;4.10;;;10.90;99.90;;;;;;4942904;28;20810;-67
2022/11/08 04:15:20;;;;;;;7.83;4.13;;;10.90;99.90;;;;;;4943369;28;20969;-67
2022/11/08 04:23:23;;;;;;;10.67;3.47;;;10.80;99.90;;;;;;4945352;28;21123;-67
2022/11/08 04:25:53;;;;;;;7.77;3.53;;;10.80;99.90;;;;;;4945784;28;20555;-67
2022/11/08 04:28:19;;;;;;;4.40;3.17;;;10.70;99.90;;;;;;4941379;28;20256;-67
2022/11/08 04:30:44;;;;;;;7.60;3.53;;;10.80;99.90;;;;;;4943621;28;20603;-67
2022/11/08 04:33:10;;;;;;;6.40;3.07;;;10.80;99.90;;;;;;4945750;28;20212;-67
2022/11/08 04:35:36;;;;;;;7.53;3.63;;;10.70;99.90;;;;;;4944653;28;20237;-66
2022/11/08 04:38:01;;;;;;;6.13;3.53;;;10.70;99.90;;;;;;4947928;28;20234;-67
2022/11/08 04:40:29;;;;;;;4.33;2.97;;;10.70;99.90;;;;;;4946645;28;20192;-67
2022/11/08 04:42:54;;;;;;;7.63;2.60;;;10.70;99.90;;;;;;4945183;28;20193;-67
2022/11/08 04:45:20;;;;;;;5.00;3.00;;;10.70;99.90;;;;;;4943600;28;20437;-67
2022/11/08 04:47:46;;;;;;;5.27;3.30;;;10.70;99.90;;;;;;4945519;28;20194;-67
2022/11/08 04:50:12;;;;;;;3.97;3.17;;;10.70;99.90;;;;;;4945656;28;20304;-67
2022/11/08 04:52:39;;;;;;;5.40;4.13;;;10.70;99.90;;;;;;4943942;28;20450;-68
2022/11/08 04:55:05;;;;;;;5.63;3.70;;;10.70;99.90;;;;;;4942846;28;20492;-68
2022/11/08 04:57:30;;;;;;;4.67;3.20;;;10.70;99.90;;;;;;4943407;28;20508;-68
2022/11/08 04:59:56;;;;;;;6.20;3.93;;;10.60;99.90;;;;;;4948223;28;20451;-67
2022/11/08 05:02:21;;;;;;;7.20;3.77;;;10.60;99.90;;;;;;4943542;28;20199;-68
2022/11/08 05:04:47;;;;;;;5.60;3.40;;;10.60;99.90;;;;;;4941854;28;20268;-68
2022/11/08 05:07:12;;;;;;;5.73;3.40;;;10.60;99.90;;;;;;4944533;28;20670;-66
2022/11/08 05:09:38;;;;;;;5.40;3.70;;;10.60;99.90;;;;;;4941383;28;20234;-66
2022/11/08 05:12:04;;;;;;;5.63;3.93;;;10.60;99.90;;;;;;4943233;28;20468;-66
2022/11/08 05:14:29;;;;;;;5.30;3.40;;;10.60;99.90;;;;;;4943065;28;20284;-67
2022/11/08 05:16:55;;;;;;;6.57;3.70;;;10.60;99.90;;;;;;4938626;28;20187;-67
2022/11/08 05:24:49;;;;;;;7.80;3.50;;;10.60;99.90;;;;;;4942369;28;20465;-67
2022/11/08 05:27:15;;;;;;;4.70;3.30;;;10.60;99.90;;;;;;4949184;28;20443;-67
2022/11/08 05:29:40;;;;;;;6.43;3.93;;;10.60;99.90;;;;;;4942945;28;20492;-66
2022/11/08 05:32:06;;;;;;;7.83;4.10;;;10.60;99.90;;;;;;4941954;28;20694;-67
2022/11/08 05:34:31;;;;;;;4.67;3.47;;;10.70;99.90;;;;;;4946891;28;20656;-68
2022/11/08 05:36:57;;;;;;;4.63;3.90;;;10.70;99.90;;;;;;4944341;28;20559;-67
2022/11/08 05:39:22;;;;;;;6.50;3.67;;;10.70;99.90;;;;;;4946401;28;20197;-67
2022/11/08 05:41:48;;;;;;;6.27;3.50;;;10.70;99.90;;;;;;4946099;28;20223;-67
2022/11/08 05:44:14;;;;;;;6.60;3.20;;;10.70;99.90;;;;;;4945127;28;20218;-67
2022/11/08 05:46:39;;;;;;;5.53;4.00;;;10.70;99.90;;;;;;4948502;28;20192;-67
2022/11/08 05:49:05;;;;;;;5.13;3.43;;;10.60;99.90;;;;;;4939830;28;20214;-67
2022/11/08 05:51:31;;;;;;;5.33;3.17;;;10.60;99.90;;;;;;4941972;28;20207;-67
2022/11/08 05:53:56;;;;;;;5.30;3.27;;;10.60;99.90;;;;;;4945298;28;20243;-67
2022/11/08 05:56:22;;;;;;;5.40;3.70;;;10.70;99.90;;;;;;4944066;28;20485;-67
2022/11/08 05:58:47;;;;;;;6.83;3.27;;;10.60;99.90;;;;;;4943041;28;20214;-67
2022/11/08 06:01:16;;;;;;;9.30;3.53;;;10.70;99.90;;;;;;4947607;28;20450;-67
2022/11/08 06:03:42;;;;;;;4.60;3.10;;;10.70;99.90;;;;;;4943674;28;20478;-68
2022/11/08 06:06:10;;;;;;;11.40;3.77;;;10.70;99.90;;;;;;4943922;28;20432;-67
2022/11/08 06:08:36;;;;;;;5.17;3.90;;;10.70;99.90;;;;;;4945175;28;20179;-67
2022/11/08 06:11:07;;;;;;;10.67;4.10;;;10.70;99.90;;;;;;4940497;28;20532;-67
2022/11/08 06:13:33;;;;;;;7.77;3.30;;;10.70;99.90;;;;;;4944143;28;20471;-67
2022/11/08 06:16:01;;;;;;;5.20;3.80;;;10.70;99.90;;;;;;4941177;28;20482;-67
2022/11/08 06:18:27;;;;;;;9.17;4.27;;;10.70;99.90;;;;;;4946990;28;20427;-67
2022/11/08 06:20:52;;;;;;;8.87;5.87;;;10.70;99.90;;;;;;4941493;28;20516;-67
2022/11/08 06:23:18;;;;;;;8.00;6.80;;;10.70;99.90;;;;;;4941132;28;20447;-67
2022/11/08 06:25:45;;;;;;;7.90;6.43;;;10.70;99.90;;;;;;4942310;28;20182;-67
2022/11/08 06:28:12;;;;;;;8.73;6.20;;;10.70;99.90;;;;;;4942819;28;20179;-67
2022/11/08 06:30:37;;;;;;;9.47;6.23;;;10.70;99.90;;;;;;4942118;28;20430;-67
2022/11/08 06:33:03;;;;;;;7.17;4.87;;;10.70;99.90;;;;;;4942140;28;20458;-67
2022/11/08 06:35:28;;;;;;;8.97;4.37;;;10.70;99.90;;;;;;4943992;28;20251;-67
2022/11/08 06:37:54;;;;;;;14.43;4.37;;;10.70;99.90;;;;;;4943729;28;20257;-67
2022/11/08 06:40:19;;;;;;;7.10;4.50;;;10.70;99.90;;;;;;4944540;28;20186;-67
2022/11/08 06:42:45;;;;;;;6.60;4.20;;;10.70;99.90;;;;;;4944449;28;20191;-67
2022/11/08 06:45:10;;;;;;;5.80;4.57;;;10.80;99.90;;;;;;4944095;28;20211;-67
2022/11/08 06:47:36;;;;;;;13.43;5.40;;;10.80;99.90;;;;;;4946402;28;20766;-68
2022/11/08 06:50:02;;;;;;;10.40;5.10;;;10.80;99.90;;;;;;4945539;28;20565;-67
2022/11/08 06:52:28;;;;;;;7.67;5.30;;;10.80;99.90;;;;;;4943454;28;20179;-67
2022/11/08 06:54:53;;;;;;;13.30;5.40;;;10.80;99.90;;;;;;4940290;28;20486;-67
2022/11/08 06:57:19;;;;;;;7.73;5.37;;;10.80;99.90;;;;;;4944161;28;20197;-67
2022/11/08 06:59:45;;;;;;;9.20;4.80;;;10.90;99.90;;;;;;4941946;28;20183;-67
2022/11/08 07:02:10;;;;;;;10.40;5.03;;;10.90;99.90;;;;;;4942215;28;20190;-67
2022/11/08 07:04:36;;;;;;;7.93;5.27;;;10.90;99.90;;;;;;4940915;28;20207;-67
2022/11/08 07:07:02;;;;;;;10.27;5.53;;;10.90;99.90;;;;;;4941906;28;20198;-67
2022/11/08 07:09:27;;;;;;;8.70;5.77;;;11.00;99.90;;;;;;4941842;28;20183;-67
2022/11/08 07:11:53;;;;;;;6.07;4.90;;;11.00;99.90;;;;;;4943789;28;20462;-67
2022/11/08 07:14:18;;;;;;;7.43;4.47;;;11.00;99.90;;;;;;4942416;28;20208;-67
2022/11/08 07:16:44;;;;;;;8.77;4.70;;;11.10;99.90;;;;;;4941683;28;20270;-67
2022/11/08 07:19:10;;;;;;;7.87;4.93;;;11.10;99.90;;;;;;4948220;28;20659;-67
2022/11/08 07:21:36;;;;;;;8.63;4.70;;;11.10;99.90;;;;;;4946123;28;20453;-67
2022/11/08 07:24:01;;;;;;;6.77;4.60;;;11.10;99.90;;;;;;4944872;28;20290;-68
2022/11/08 07:26:27;;;;;;;6.63;4.97;;;11.10;99.90;;;;;;4945712;28;20194;-67
2022/11/08 07:28:53;;;;;;;7.03;4.90;;;11.10;99.90;;;;;;4944167;28;20504;-68
2022/11/08 07:31:18;;;;;;;5.97;4.73;;;11.20;99.90;;;;;;4943792;28;20264;-66
2022/11/08 07:33:44;;;;;;;6.00;4.80;;;11.20;99.90;;;;;;4945495;28;20211;-68
2022/11/08 07:36:09;;;;;;;11.60;6.10;;;11.20;99.90;;;;;;4944190;28;20522;-66
2022/11/08 07:38:35;;;;;;;9.00;6.13;;;11.30;99.90;;;;;;4945007;28;20187;-68
2022/11/08 07:41:01;;;;;;;11.37;7.30;;;11.30;99.90;;;;;;4952186;28;20581;-68
2022/11/08 07:43:27;;;;;;;14.60;7.50;;;11.30;99.90;;;;;;4945913;28;20224;-68
2022/11/08 07:45:58;;;;;;;22.23;7.67;;;11.40;99.90;;;;;;4948317;28;20191;-67
2022/11/08 07:48:25;;;;;;;19.90;8.23;;;11.40;99.90;;;;;;4944684;28;20493;-67
2022/11/08 07:50:51;;;;;;;15.57;7.90;;;11.40;99.90;;;;;;4948121;28;21015;-68
2022/11/08 07:53:17;;;;;;;10.30;6.70;;;11.50;99.90;;;;;;4943979;28;20495;-68
2022/11/08 07:55:45;;;;;;;15.20;7.57;;;11.50;99.90;;;;;;4948184;28;20465;-67
2022/11/08 07:58:11;;;;;;;18.47;6.77;;;11.50;99.90;;;;;;4946691;28;20259;-67
2022/11/08 08:00:38;;;;;;;12.80;6.47;;;11.50;99.90;;;;;;4939163;28;20538;-66
2022/11/08 08:03:06;;;;;;;10.70;6.13;;;11.60;99.90;;;;;;4942635;28;20442;-67
2022/11/08 08:06:06;;;;;;;11.13;5.90;;;11.60;99.90;;;;;;4952951;28;20428;-65
2022/11/08 08:08:32;;;;;;;11.07;6.40;;;11.70;99.90;;;;;;4941920;28;21156;-66
2022/11/08 08:11:02;;;;;;;13.77;6.53;;;11.70;99.90;;;;;;4951001;28;20439;-67
2022/11/08 08:13:28;;;;;;;15.43;8.03;;;11.80;99.90;;;;;;4965469;22;20320;-66
2022/11/08 08:15:58;;;;;;;18.57;7.17;;;11.80;99.90;;;;;;5010501;28;20902;-67
2022/11/08 08:18:24;;;;;;;10.80;5.10;;;11.80;99.90;;;;;;5006017;28;20447;-68
2022/11/08 08:20:49;;;;;;;12.00;7.10;;;11.90;99.90;;;;;;5006612;28;20450;-67
2022/11/08 08:23:15;;;;;;;11.27;5.37;;;11.90;99.90;;;;;;5001076;28;20200;-68
2022/11/08 08:25:40;;;;;;;11.83;5.70;;;11.90;99.90;;;;;;4934650;28;20517;-67
2022/11/08 08:28:06;;;;;;;8.87;4.43;;;12.00;99.90;;;;;;5008696;28;20186;-67
2022/11/08 08:30:33;;;;;;;8.03;4.40;;;12.10;99.90;;;;;;5007016;28;20836;-67
2022/11/08 08:33:08;;;;;;;7.67;5.07;;;12.10;99.90;;;;;;4942842;28;20220;-67
2022/11/08 08:35:35;;;;;;;7.07;4.93;;;12.10;99.90;;;;;;4941170;28;20431;-68
2022/11/08 08:38:02;;;;;;;9.23;4.73;;;12.20;99.90;;;;;;4941297;28;20656;-67
2022/11/08 08:40:28;;;;;;;8.00;5.17;;;12.20;99.90;;;;;;4942865;28;20431;-68
2022/11/08 08:42:54;;;;;;;6.83;5.07;;;12.20;99.90;;;;;;4945070;28;20718;-68
2022/11/08 08:45:20;;;;;;;8.00;4.50;;;12.20;99.90;;;;;;4945390;28;20573;-67
2022/11/08 08:47:51;;;;;;;5.40;3.67;;;12.30;99.90;;;;;;4941647;28;20525;-67
2022/11/08 08:50:17;;;;;;;5.50;3.57;;;12.40;99.90;;;;;;4945048;28;20222;-67
2022/11/08 08:52:42;;;;;;;6.03;3.90;;;12.40;99.90;;;;;;4942836;28;20463;-69
2022/11/08 08:55:08;;;;;;;4.43;3.13;;;12.40;99.90;;;;;;4950304;28;21116;-68
2022/11/08 08:57:34;;;;;;;6.03;3.50;;;12.40;99.90;;;;;;4939652;28;20182;-68
2022/11/08 08:59:59;;;;;;;8.10;3.80;;;12.40;99.90;;;;;;4944250;28;20187;-67
2022/11/08 09:02:25;;;;;;;3.47;2.90;;;12.40;99.90;;;;;;4942199;28;20185;-68
2022/11/08 09:04:50;;;;;;;5.73;3.13;;;12.50;99.90;;;;;;4943552;28;20199;-68
2022/11/08 09:07:16;;;;;;;4.07;3.23;;;12.60;99.90;;;;;;4941198;28;20198;-68
2022/11/08 09:09:41;;;;;;;4.03;3.20;;;12.60;99.90;;;;;;4942317;28;20198;-68
2022/11/08 09:12:07;;;;;;;4.17;2.90;;;12.70;99.90;;;;;;5013410;28;20265;-68
2022/11/08 09:14:32;;;;;;;7.20;3.53;;;12.80;99.90;;;;;;4942269;28;20222;-68
2022/11/08 09:16:58;;;;;;;8.13;3.50;;;12.80;99.90;;;;;;4945266;28;20190;-68
2022/11/08 09:19:24;;;;;;;3.90;2.80;;;12.80;99.90;;;;;;4942990;28;20675;-68
2022/11/08 09:21:49;;;;;;;4.20;2.67;;;12.90;99.90;;;;;;4945293;28;20802;-68
2022/11/08 09:24:16;;;;;;;4.30;2.97;;;12.90;99.90;;;;;;5008634;28;20203;-68
2022/11/08 09:26:41;;;;;;;4.77;2.90;;;13.10;99.90;;;;;;4942816;28;20214;-68
2022/11/08 09:29:07;;;;;;;4.20;3.20;;;13.10;99.90;;;;;;4938017;28;20440;-68
2022/11/08 09:31:32;;;;;;;5.80;3.33;;;13.10;99.90;;;;;;4942213;28;20192;-67
2022/11/08 09:33:59;;;;;;;3.70;2.83;;;13.10;99.90;;;;;;4939287;28;20234;-67
2022/11/08 09:36:24;;;;;;;4.60;3.20;;;13.10;99.90;;;;;;4942185;28;20457;-67
2022/11/08 09:38:50;;;;;;;6.33;3.23;;;13.10;99.90;;;;;;4940405;28;20206;-67
2022/11/08 09:41:41;;;;;;;4.63;3.30;;;13.20;99.90;;;;;;4943819;28;20191;-67
2022/11/08 09:44:15;;;;;;;6.40;3.70;;;13.20;99.90;;;;;;4999777;28;20230;-67
2022/11/08 09:46:52;;;;;;;9.40;3.87;;;13.10;99.90;;;;;;4939965;28;20506;-67
2022/11/08 09:49:29;;;;;;;3.47;3.10;;;13.00;99.90;;;;;;4945987;28;20783;-67
2022/11/08 09:51:56;;;;;;;4.67;3.30;;;13.00;99.90;;;;;;4940184;28;20434;-67
2022/11/08 09:54:26;;;;;;;4.67;3.43;;;13.10;99.90;;;;;;4950933;28;20478;-66
2022/11/08 09:56:54;;;;;;;6.30;3.53;;;13.20;99.90;;;;;;4942958;28;20435;-68
2022/11/08 09:59:27;;;;;;;4.70;3.20;;;13.10;99.90;;;;;;4942542;28;20458;-68
2022/11/08 10:01:53;;;;;;;4.53;3.00;;;13.10;99.90;;;;;;4945080;28;20462;-68
2022/11/08 10:04:22;;;;;;;7.00;3.43;;;13.10;99.90;;;;;;4943666;28;20493;-68
2022/11/08 10:06:57;;;;;;;6.10;3.33;;;13.10;99.90;;;;;;4943871;28;20187;-67
2022/11/08 10:09:54;;;;;;;5.90;4.17;;;13.10;99.90;;;;;;4940685;28;20438;-69
2022/11/08 10:12:56;;;;;;;4.13;3.10;;;13.10;99.90;;;;;;4944297;28;20434;-68
2022/11/08 10:15:32;;;;;;;5.43;3.60;;;13.10;99.90;;;;;;4943471;28;20800;-68
2022/11/08 10:18:39;;;;;;;8.33;3.93;;;13.20;99.90;;;;;;4943158;28;20479;-65
2022/11/08 10:21:10;;;;;;;8.57;3.60;;;13.20;99.90;;;;;;4947109;28;20441;-68
2022/11/08 10:23:42;;;;;;;4.53;3.33;;;13.20;99.90;;;;;;4939455;28;20453;-67
2022/11/08 10:26:17;;;;;;;6.97;4.90;;;13.20;99.90;;;;;;4944319;28;20508;-68
2022/11/08 10:28:49;;;;;;;13.60;6.93;;;13.20;99.90;;;;;;4940887;28;20808;-68
2022/11/08 10:31:16;;;;;;;6.30;4.87;;;13.20;99.90;;;;;;4941653;28;20450;-67
2022/11/08 10:33:55;;;;;;;6.10;4.20;;;13.30;99.90;;;;;;4943984;28;20474;-67
2022/11/08 10:36:39;;;;;;;8.43;4.63;;;13.40;99.90;;;;;;4942607;28;20539;-68
2022/11/08 10:39:07;;;;;;;8.03;4.17;;;13.50;99.90;;;;;;4944656;28;20899;-68
2022/11/08 10:41:58;;;;;;;6.40;3.80;;;13.50;99.90;;;;;;4940647;28;20480;-68
2022/11/08 10:44:26;;;;;;;6.30;3.30;;;13.60;99.90;;;;;;4942346;28;20534;-67
2022/11/08 10:46:58;;;;;;;6.20;3.93;;;13.70;99.90;;;;;;4990603;28;21002;-67
2022/11/08 10:49:33;;;;;;;11.10;4.30;;;13.70;99.90;;;;;;4942694;28;20469;-67
2022/11/08 10:52:11;;;;;;;7.20;4.50;;;13.70;99.90;;;;;;4942270;28;20556;-68
2022/11/08 10:54:54;;;;;;;4.33;3.30;;;13.80;99.90;;;;;;4947991;28;20561;-67
2022/11/08 10:57:31;;;;;;;3.73;3.27;;;13.90;99.90;;;;;;4942493;28;20419;-67
2022/11/08 11:00:20;;;;;;;4.10;3.50;;;13.90;99.90;;;;;;4945083;28;20434;-67
2022/11/08 11:03:01;;;;;;;4.80;4.00;;;14.00;99.90;;;;;;4940911;28;20751;-68
2022/11/08 11:05:31;;;;;;;5.13;3.40;;;14.20;99.90;;;;;;4940056;28;20417;-67
2022/11/08 11:08:07;;;;;;;4.63;3.30;;;14.30;99.90;;;;;;4942483;28;20422;-67
2022/11/08 11:10:46;;;;;;;5.60;3.23;;;14.40;99.90;;;;;;4940252;28;20500;-69
2022/11/08 11:13:22;;;;;;;5.13;3.23;;;14.40;99.90;;;;;;4943827;28;20477;-67
2022/11/08 11:15:58;;;;;;;5.50;3.23;;;14.50;99.90;;;;;;4941039;28;20462;-67
2022/11/08 11:18:23;;;;;;;7.00;3.53;;;14.60;99.90;;;;;;4937701;28;20894;-67
2022/11/08 11:20:58;;;;;;;3.77;2.80;;;14.70;99.90;;;;;;4943824;28;20533;-67
2022/11/08 11:23:34;;;;;;;3.70;2.90;;;14.80;99.90;;;;;;5005008;28;20739;-67
2022/11/08 11:26:00;;;;;;;3.87;2.87;;;15.00;99.90;;;;;;4939217;28;20454;-67
2022/11/08 11:28:25;;;;;;;5.60;2.83;;;15.10;99.90;;;;;;4942841;28;20556;-67
2022/11/08 11:31:15;;;;;;;4.40;3.00;;;15.30;99.90;;;;;;4946620;28;20282;-67
2022/11/08 11:33:45;;;;;;;5.50;3.07;;;15.50;99.90;;;;;;4940989;28;20230;-67
2022/11/08 11:36:15;;;;;;;3.97;2.80;;;15.60;99.90;;;;;;4942903;28;20901;-66
2022/11/08 11:39:05;;;;;;;5.07;2.47;;;15.80;99.90;;;;;;4941081;28;20817;-67
2022/11/08 11:41:34;;;;;;;3.83;2.60;;;16.10;99.90;;;;;;4939501;28;20976;-67
2022/11/08 11:44:24;;;;;;;4.40;2.90;;;16.40;99.90;;;;;;4942300;28;20554;-67
2022/11/08 11:47:00;;;;;;;3.50;2.87;;;16.70;99.90;;;;;;4939790;28;20467;-67
2022/11/08 11:49:28;;;;;;;4.30;2.60;;;17.00;99.90;;;;;;4938624;28;20517;-67
2022/11/08 11:51:55;;;;;;;4.17;2.63;;;17.20;99.90;;;;;;4938760;28;20435;-67
2022/11/08 11:54:30;;;;;;;4.20;3.13;;;17.40;99.90;;;;;;4938571;28;20878;-67
2022/11/08 11:57:13;;;;;;;3.57;2.70;;;17.70;99.90;;;;;;5005547;28;20457;-67
2022/11/08 12:00:09;;;;;;;4.87;3.07;;;18.00;99.90;;;;;;5003348;28;20426;-67
2022/11/08 12:03:07;;;;;;;3.63;2.30;;;18.20;99.90;;;;;;4937472;28;20428;-67
2022/11/08 12:06:04;;;;;;;5.23;4.10;;;18.30;99.90;;;;;;4943035;28;20521;-67
2022/11/08 12:08:55;;;;;;;3.93;2.90;;;18.40;99.90;;;;;;4941132;28;21254;-67
2022/11/08 12:11:42;;;;;;;4.90;2.30;;;18.50;99.90;;;;;;4943609;28;20866;-67
2022/11/08 12:14:22;;;;;;;3.33;2.50;;;18.60;99.90;;;;;;4943919;28;20477;-67
2022/11/08 12:17:23;;;;;;;4.63;2.90;;;18.60;99.90;;;;;;4946427;28;20433;-67
2022/11/08 12:20:24;;;;;;;3.60;2.90;;;18.60;99.90;;;;;;4960240;28;20462;-68
2022/11/08 12:23:10;;;;;;;5.00;2.77;;;18.70;99.90;;;;;;4950313;28;20521;-68
2022/11/08 12:25:42;;;;;;;4.07;2.50;;;18.80;99.90;;;;;;4942156;28;20423;-67
2022/11/08 12:28:34;;;;;;;3.83;3.30;;;18.90;99.90;;;;;;4944873;28;20518;-68
2022/11/08 12:31:34;;;;;;;4.80;2.90;;;18.90;99.90;;;;;;4955090;28;20529;-68
2022/11/08 12:34:04;;;;;;;3.67;2.63;;;18.90;99.90;;;;;;4946467;28;20506;-68
2022/11/08 12:37:00;;;;;;;5.60;2.83;;;18.90;99.90;;;;;;4946541;28;20776;-67
2022/11/08 12:39:39;;;;;;;10.30;2.80;;;18.90;99.90;;;;;;4945466;28;20457;-68
2022/11/08 12:42:37;;;;;;;4.83;3.07;;;18.80;99.90;;;;;;4937244;28;20808;-67
2022/11/08 12:45:24;;;;;;;5.20;3.50;;;18.80;99.90;;;;;;4943074;28;20966;-67
2022/11/08 12:48:06;;;;;;;4.07;3.03;;;18.80;99.90;;;;;;4943415;28;20522;-67
2022/11/08 12:50:37;;;;;;;3.83;2.77;;;18.70;99.90;;;;;;5018074;28;20512;-67
2022/11/08 12:53:43;;;;;;;3.37;2.83;;;18.70;99.90;;;;;;5007517;28;20452;-67
2022/11/08 12:56:14;;;;;;;5.63;3.03;;;18.60;99.90;;;;;;4944203;28;20426;-68
2022/11/08 12:58:45;;;;;;;4.50;3.07;;;18.60;99.90;;;;;;4945271;28;20443;-69
2022/11/08 13:01:16;;;;;;;5.23;3.33;;;18.60;99.90;;;;;;4942549;28;20451;-68
2022/11/08 13:03:41;;;;;;;9.10;3.03;;;18.60;99.90;;;;;;4944174;28;20641;-67
2022/11/08 13:06:19;;;;;;;4.40;2.83;;;18.60;99.90;;;;;;4945172;28;21040;-68
2022/11/08 13:09:09;;;;;;;6.93;3.33;;;18.60;99.90;;;;;;4940093;28;20198;-67
2022/11/08 13:12:05;;;;;;;4.70;3.10;;;18.60;99.90;;;;;;4942696;28;20784;-67
2022/11/08 13:14:32;;;;;;;4.43;3.20;;;18.60;99.90;;;;;;4942985;28;20463;-67
2022/11/08 13:17:24;;;;;;;3.43;2.90;;;18.60;99.90;;;;;;4943370;28;20589;-67
2022/11/08 13:19:55;;;;;;;4.20;3.23;;;18.60;99.90;;;;;;4946775;28;20818;-67
2022/11/08 13:22:32;;;;;;;5.00;3.00;;;18.50;99.90;;;;;;4943504;28;20472;-67